Time;durP1;ratioP1;P1;durP2;ratioP2;P2;SDS_P1;SDS_P2;PMS_P1;PMS_P2;Temp;Humidity;BMP_temperature;BMP_pressure;BME280_temperature;BME280_humidity;BME280_pressure;Samples;Min_cycle;Max_cycle;Signal;HPM_P1;HPM_P2
2023/01/20 00:01:47;;;;;;;10.85;4.90;;;;;;;3.18;57.51;101836.38;1807705;77;21619;-46
2023/01/20 00:04:21;;;;;;;9.73;4.78;;;;;;;3.12;57.31;101838.89;1811380;78;21219;-47
2023/01/20 00:06:46;;;;;;;7.53;4.22;;;;;;;3.03;57.39;101830.16;1807166;78;21151;-46
2023/01/20 00:09:17;;;;;;;11.18;5.25;;;;;;;3.04;57.43;101832.32;1801327;78;21129;-46
2023/01/20 00:11:47;;;;;;;15.23;5.20;;;;;;;3.04;57.55;101829.72;1808674;78;21635;-46
2023/01/20 00:14:16;;;;;;;11.88;2.92;;;;;;;3.02;57.92;101824.49;1803394;78;21037;-46
2023/01/20 00:16:45;;;;;;;13.43;4.65;;;;;;;3.02;57.69;101828.39;1809387;77;21694;-45
2023/01/20 00:19:14;;;;;;;11.70;3.90;;;;;;;3.01;57.98;101833.61;1811034;77;21135;-49
2023/01/20 00:21:43;;;;;;;7.60;4.22;;;;;;;2.97;57.64;101832.71;1824763;78;21081;-48
2023/01/20 00:24:12;;;;;;;6.30;3.42;;;;;;;2.88;57.87;101837.82;1820403;78;21099;-46
2023/01/20 00:26:40;;;;;;;5.90;3.47;;;;;;;2.84;57.54;101830.81;1807958;78;21131;-45
2023/01/20 00:29:10;;;;;;;5.30;3.35;;;;;;;2.82;57.57;101832.53;1799001;77;21171;-51
2023/01/20 00:31:38;;;;;;;7.30;3.27;;;;;;;2.77;57.45;101832.50;1802880;77;21680;-51
2023/01/20 00:34:07;;;;;;;5.70;3.60;;;;;;;2.73;57.57;101831.13;1817226;76;21109;-49
2023/01/20 00:36:35;;;;;;;8.53;3.42;;;;;;;2.67;57.61;101826.73;1816157;77;21160;-53
2023/01/20 00:39:05;;;;;;;8.00;3.95;;;;;;;2.63;57.53;101827.13;1836421;77;21052;-54
2023/01/20 00:41:33;;;;;;;6.22;3.87;;;;;;;2.62;57.43;101831.91;1821730;79;21503;-49
2023/01/20 00:44:02;;;;;;;9.05;5.28;;;;;;;2.64;57.29;101831.93;1822309;77;21131;-54
2023/01/20 00:46:31;;;;;;;10.63;4.53;;;;;;;2.65;57.32;101829.75;1821561;79;21068;-52
2023/01/20 00:48:59;;;;;;;6.53;3.02;;;;;;;2.65;57.52;101829.32;1821818;79;21058;-54
2023/01/20 00:51:28;;;;;;;8.80;5.15;;;;;;;2.65;57.89;101827.16;1808306;77;21107;-57
2023/01/20 00:53:57;;;;;;;6.42;3.47;;;;;;;2.63;58.42;101821.06;1808815;78;21636;-52
2023/01/20 00:56:26;;;;;;;13.08;5.37;;;;;;;2.62;58.44;101818.91;1814658;77;21145;-51
2023/01/20 00:58:54;;;;;;;12.35;5.30;;;;;;;2.57;58.27;101823.61;1800706;77;21171;-50
2023/01/20 01:01:23;;;;;;;10.03;4.10;;;;;;;2.53;58.19;101821.41;1794579;79;21224;-53
2023/01/20 01:03:56;;;;;;;9.38;4.60;;;;;;;2.52;58.29;101815.74;1802563;78;21157;-52
2023/01/20 01:06:24;;;;;;;10.85;5.83;;;;;;;2.53;58.08;101812.30;1803650;79;21237;-48
2023/01/20 01:08:53;;;;;;;12.00;5.45;;;;;;;2.53;57.94;101811.00;1800706;78;21135;-54
2023/01/20 01:11:22;;;;;;;14.43;6.05;;;;;;;2.50;57.83;101803.16;1790860;77;21190;-53
2023/01/20 01:13:50;;;;;;;12.93;5.90;;;;;;;2.49;58.01;101802.30;1850166;76;21068;-56
2023/01/20 01:16:19;;;;;;;9.73;4.17;;;;;;;2.45;58.99;101804.42;1849278;74;21251;-56
2023/01/20 01:18:47;;;;;;;19.87;5.33;;;;;;;2.41;58.77;101804.35;1846149;76;21148;-49
2023/01/20 01:21:17;;;;;;;10.98;4.28;;;;;;;2.37;58.84;101809.08;1844909;76;21159;-53
2023/01/20 01:23:45;;;;;;;8.78;4.83;;;;;;;2.30;58.78;101805.08;1852378;76;21612;-53
2023/01/20 01:26:14;;;;;;;10.82;4.67;;;;;;;2.26;59.45;101792.05;1871092;76;21142;-54
2023/01/20 01:28:43;;;;;;;10.78;4.78;;;;;;;2.30;59.50;101791.22;1876087;76;21050;-52
2023/01/20 01:31:11;;;;;;;6.87;4.10;;;;;;;2.33;59.38;101793.01;1871144;76;21179;-54
2023/01/20 01:33:40;;;;;;;9.73;4.10;;;;;;;2.33;59.16;101796.91;1867809;76;21150;-53
2023/01/20 01:36:12;;;;;;;14.05;4.87;;;;;;;2.29;59.01;101787.77;1865921;76;21193;-50
2023/01/20 01:38:40;;;;;;;9.90;4.90;;;;;;;2.27;59.00;101792.07;1870687;76;21061;-48
2023/01/20 01:41:14;;;;;;;9.88;4.95;;;;;;;2.26;59.04;101787.72;1874043;74;21143;-54
2023/01/20 01:43:43;;;;;;;;;;;;;;;2.27;59.50;101789.47;1869494;76;21581;-48
2023/01/20 01:46:12;;;;;;;11.05;5.08;;;;;;;2.29;59.54;101792.09;1864590;76;20199;-47
2023/01/20 01:48:43;;;;;;;9.88;4.72;;;;;;;2.24;59.46;101792.02;1877780;76;21127;-57
2023/01/20 01:51:15;;;;;;;8.55;4.00;;;;;;;2.21;59.72;101789.37;1867394;76;21105;-49
2023/01/20 01:53:46;;;;;;;9.63;3.85;;;;;;;2.22;59.44;101793.73;1838109;77;21123;-47
2023/01/20 01:56:15;;;;;;;8.58;3.83;;;;;;;2.21;59.29;101791.11;1874369;76;21145;-48
2023/01/20 01:58:47;;;;;;;11.53;4.35;;;;;;;2.19;59.23;101794.98;1873669;76;21034;-49
2023/01/20 02:01:16;;;;;;;9.03;4.50;;;;;;;2.18;59.25;101796.30;1860134;76;21080;-49
2023/01/20 02:03:50;;;;;;;7.28;5.05;;;;;;;2.14;59.36;101792.78;1868898;76;21564;-49
2023/01/20 02:06:19;;;;;;;8.18;4.30;;;;;;;2.11;59.35;101794.89;1841573;74;21111;-52
2023/01/20 02:08:48;;;;;;;11.78;4.90;;;;;;;2.13;59.32;101793.19;1867021;75;21099;-49
2023/01/20 02:11:17;;;;;;;10.90;4.85;;;;;;;2.18;59.23;101796.30;1867967;76;21658;-51
2023/01/20 02:13:46;;;;;;;7.37;4.35;;;;;;;2.16;59.11;101796.27;1876118;76;22548;-51
2023/01/20 02:16:34;;;;;;;7.90;4.12;;;;;;;2.13;59.31;101796.22;1870311;76;21163;-50
2023/01/20 02:19:25;;;;;;;8.35;4.12;;;;;;;2.11;59.19;101803.13;1874598;76;21186;-54
2023/01/20 02:22:12;;;;;;;24.07;5.55;;;;;;;2.09;58.96;101799.64;1871830;75;21109;-53
2023/01/20 02:24:46;;;;;;;10.45;5.10;;;;;;;2.04;58.91;101792.20;1872215;75;21454;-50
2023/01/20 02:27:22;;;;;;;9.35;4.45;;;;;;;1.98;59.12;101789.53;1848979;76;21143;-54
2023/01/20 02:30:03;;;;;;;15.48;5.28;;;;;;;1.95;59.27;101786.89;1855894;75;21206;-52
2023/01/20 02:32:37;;;;;;;12.18;5.72;;;;;;;1.95;59.22;101791.65;1839776;75;21154;-56
2023/01/20 02:35:14;;;;;;;10.13;4.37;;;;;;;1.90;59.34;101796.80;1850392;75;21081;-53
2023/01/20 02:37:46;;;;;;;12.80;4.53;;;;;;;1.91;59.71;101793.77;1851964;75;21192;-51
2023/01/20 02:40:33;;;;;;;9.23;3.85;;;;;;;1.91;60.04;101788.13;1854268;75;21202;-54
2023/01/20 02:43:07;;;;;;;7.17;3.52;;;;;;;1.89;59.75;101792.44;1860017;75;21175;-51
2023/01/20 02:45:47;;;;;;;9.68;4.50;;;;;;;1.85;59.75;101789.80;1850718;76;21098;-53
2023/01/20 02:48:22;;;;;;;10.88;4.50;;;;;;;1.80;59.84;101792.75;1846516;75;21014;-51
2023/01/20 02:51:02;;;;;;;9.08;3.52;;;;;;;1.76;59.76;101786.64;1851450;76;21181;-54
2023/01/20 02:53:34;;;;;;;14.68;4.20;;;;;;;1.75;59.77;101783.58;1849442;75;21241;-49
2023/01/20 02:56:04;;;;;;;8.00;3.83;;;;;;;1.67;59.96;101790.41;1879089;75;21195;-49
2023/01/20 02:58:36;;;;;;;8.93;3.83;;;;;;;1.64;59.92;101794.24;1871943;76;21023;-51
2023/01/20 03:01:30;;;;;;;13.60;5.43;;;;;;;1.62;59.93;101792.05;1863255;76;21117;-52
2023/01/20 03:04:02;;;;;;;13.58;4.35;;;;;;;1.58;60.04;101792.86;1862284;76;21871;-50
2023/01/20 03:06:34;;;;;;;9.28;3.42;;;;;;;1.52;60.14;101790.62;1847342;76;21698;-55
2023/01/20 03:09:05;;;;;;;10.58;4.50;;;;;;;1.46;60.31;101786.64;1856790;76;21105;-55
2023/01/20 03:11:36;;;;;;;15.90;5.55;;;;;;;1.46;60.03;101788.38;1858412;76;21125;-54
2023/01/20 03:14:07;;;;;;;12.47;5.40;;;;;;;1.47;60.17;101788.37;1856932;76;21619;-52
2023/01/20 03:16:36;;;;;;;7.40;4.40;;;;;;;1.47;60.43;101781.02;1853427;76;21082;-52
2023/01/20 03:19:04;;;;;;;13.62;5.17;;;;;;;1.47;60.52;101784.47;1855664;76;21159;-48
2023/01/20 03:21:34;;;;;;;14.00;4.75;;;;;;;1.47;60.48;101783.17;1854814;76;21140;-52
2023/01/20 03:24:05;;;;;;;19.37;5.85;;;;;;;1.46;60.30;101781.45;1857224;75;21557;-52
2023/01/20 03:26:34;;;;;;;21.15;6.47;;;;;;;1.43;60.25;101791.77;1864547;75;21200;-54
2023/01/20 03:29:11;;;;;;;14.45;7.22;;;;;;;1.37;60.40;101786.50;1890445;76;21540;-53
2023/01/20 03:31:48;;;;;;;13.05;6.85;;;;;;;1.34;60.45;101789.03;1889277;74;21150;-50
2023/01/20 03:34:20;;;;;;;19.85;7.10;;;;;;;1.31;60.32;101792.47;1891020;74;21043;-50
2023/01/20 03:36:50;;;;;;;20.12;6.80;;;;;;;1.27;60.45;101791.08;1887656;76;21089;-52
2023/01/20 03:39:19;;;;;;;18.55;7.85;;;;;;;1.23;60.57;101800.97;1886411;76;21086;-49
2023/01/20 03:42:05;;;;;;;15.35;8.48;;;;;;;1.20;60.69;101803.50;1886286;76;21050;-51
2023/01/20 03:44:36;;;;;;;23.47;8.50;;;;;;;1.17;60.68;101804.77;1886335;76;21047;-53
2023/01/20 03:47:20;;;;;;;19.35;8.43;;;;;;;1.12;60.83;101808.13;1886068;76;21011;-53
2023/01/20 03:50:21;;;;;;;29.10;8.83;;;;;;;1.08;61.01;101810.23;1885935;76;21086;-54
2023/01/20 03:53:20;;;;;;;19.25;8.03;;;;;;;1.02;61.14;101814.46;1885717;76;21603;-52
2023/01/20 03:56:04;;;;;;;22.87;8.40;;;;;;;1.00;60.80;101809.64;1886307;76;21090;-54
2023/01/20 03:58:38;;;;;;;29.42;10.38;;;;;;;0.99;60.66;101807.91;1886508;76;21043;-53
2023/01/20 04:01:09;;;;;;;20.02;7.80;;;;;;;0.92;60.75;101812.11;1886281;76;21057;-48
2023/01/20 04:03:41;;;;;;;19.35;7.05;;;;;;;0.92;60.70;101809.51;1886171;76;21046;-48
2023/01/20 04:06:12;;;;;;;20.12;6.75;;;;;;;0.89;60.86;101808.19;1886271;76;21180;-48
2023/01/20 04:08:44;;;;;;;9.90;6.05;;;;;;;0.90;60.77;101800.41;1886360;76;21134;-47
2023/01/20 04:11:13;;;;;;;16.02;7.28;;;;;;;0.90;60.57;101803.42;1884856;76;21120;-48
2023/01/20 04:13:42;;;;;;;20.02;7.45;;;;;;;0.88;60.48;101807.72;1886442;76;21032;-47
2023/01/20 04:16:13;;;;;;;13.45;6.45;;;;;;;0.88;60.60;101811.61;1886259;76;21109;-48
2023/01/20 04:18:43;;;;;;;21.55;7.22;;;;;;;0.86;60.84;101814.59;1886358;75;21125;-48
2023/01/20 04:21:15;;;;;;;21.68;6.78;;;;;;;0.83;61.15;101808.05;1886373;76;21108;-52
2023/01/20 04:23:46;;;;;;;20.97;6.62;;;;;;;0.83;61.29;101816.73;1886471;75;21110;-51
2023/01/20 04:26:15;;;;;;;19.30;7.40;;;;;;;0.82;61.36;101816.69;1881052;75;21076;-48
2023/01/20 04:28:43;;;;;;;22.73;7.42;;;;;;;0.84;61.33;101817.59;1868485;76;21039;-49
2023/01/20 04:31:13;;;;;;;21.77;7.03;;;;;;;0.85;61.34;101817.63;1868180;76;21138;-49
2023/01/20 04:33:42;;;;;;;36.93;7.12;;;;;;;0.86;61.41;101815.89;1869507;76;21494;-49
2023/01/20 04:36:11;;;;;;;17.25;5.97;;;;;;;0.86;61.48;101819.35;1868773;76;21114;-49
2023/01/20 04:38:40;;;;;;;29.23;6.58;;;;;;;0.88;61.33;101816.80;1870186;76;21078;-52
2023/01/20 04:41:11;;;;;;;22.13;6.65;;;;;;;0.86;61.15;101815.47;1868617;76;21121;-55
2023/01/20 04:43:43;;;;;;;26.45;7.62;;;;;;;0.86;61.07;101819.35;1866851;76;21170;-53
2023/01/20 04:46:16;;;;;;;37.38;8.23;;;;;;;0.85;61.04;101816.73;1867970;76;21419;-55
2023/01/20 04:48:45;;;;;;;38.08;7.80;;;;;;;0.86;60.96;101821.08;1869463;76;21502;-54
2023/01/20 04:51:14;;;;;;;35.73;8.78;;;;;;;0.87;60.91;101816.36;1868933;76;21506;-57
2023/01/20 04:53:43;;;;;;;21.02;7.10;;;;;;;0.89;60.89;101825.04;1868829;76;21517;-57
2023/01/20 04:56:13;;;;;;;17.32;7.55;;;;;;;0.91;61.03;101822.05;1867684;76;21087;-56
2023/01/20 04:58:42;;;;;;;31.57;7.60;;;;;;;0.95;61.07;101825.13;1867882;76;21091;-55
2023/01/20 05:01:11;;;;;;;24.95;7.97;;;;;;;1.00;61.10;101814.42;1866945;76;21059;-56
2023/01/20 05:03:40;;;;;;;38.60;8.08;;;;;;;1.03;61.22;101822.23;1868981;76;21070;-55
2023/01/20 05:06:12;;;;;;;25.90;10.08;;;;;;;1.05;61.39;101828.36;1867400;76;21059;-57
2023/01/20 05:08:41;;;;;;;33.40;11.55;;;;;;;1.07;61.29;101826.66;1868714;76;21070;-58
2023/01/20 05:11:09;;;;;;;41.35;10.15;;;;;;;1.08;61.36;101829.69;1867957;76;21180;-59
2023/01/20 05:13:39;;;;;;;25.17;8.43;;;;;;;1.09;61.47;101830.15;1868699;76;21051;-58
2023/01/20 05:16:09;;;;;;;35.25;12.07;;;;;;;1.15;61.35;101826.36;1868251;76;21539;-58
2023/01/20 05:18:37;;;;;;;38.78;12.80;;;;;;;1.28;61.35;101823.98;1867919;76;21486;-59
2023/01/20 05:21:07;;;;;;;24.45;10.32;;;;;;;1.46;61.33;101817.78;1868327;76;21122;-58
2023/01/20 05:23:36;;;;;;;27.13;9.90;;;;;;;1.63;61.20;101814.58;1869503;76;21507;-59
2023/01/20 05:26:05;;;;;;;20.60;8.38;;;;;;;1.84;61.17;101814.88;1868557;76;21016;-60
2023/01/20 05:28:34;;;;;;;34.08;10.82;;;;;;;2.05;61.10;101808.25;1884934;76;21098;-59
2023/01/20 05:31:05;;;;;;;24.85;9.73;;;;;;;2.21;60.87;101815.80;1886515;76;21047;-59
2023/01/20 05:33:35;;;;;;;37.78;8.75;;;;;;;2.33;60.66;101812.50;1886268;76;21109;-59
2023/01/20 05:36:09;;;;;;;32.05;10.68;;;;;;;2.47;60.46;101817.01;1886425;75;21478;-51
2023/01/20 05:38:38;;;;;;;29.15;9.65;;;;;;;2.59;60.20;101809.76;1886568;76;21035;-52
2023/01/20 05:41:08;;;;;;;24.07;9.35;;;;;;;2.66;60.20;101820.67;1886367;76;21015;-50
2023/01/20 05:43:37;;;;;;;30.72;10.13;;;;;;;2.85;60.13;101815.67;1886472;76;21047;-50
2023/01/20 05:46:10;;;;;;;26.75;8.68;;;;;;;3.16;59.91;101822.47;1886230;76;21043;-50
2023/01/20 05:48:38;;;;;;;30.12;11.33;;;;;;;3.51;59.53;101811.48;1886388;76;21043;-50
2023/01/20 05:51:07;;;;;;;30.45;9.83;;;;;;;3.93;59.01;101811.28;1886403;76;21010;-53
2023/01/20 05:53:35;;;;;;;32.10;11.90;;;;;;;4.33;58.41;101812.79;1886476;76;21568;-51
2023/01/20 05:56:14;;;;;;;25.75;10.40;;;;;;;4.64;57.77;101815.07;1886250;76;21023;-53
2023/01/20 05:58:42;;;;;;;25.90;10.23;;;;;;;4.94;57.22;101810.37;1886536;75;21082;-53
2023/01/20 06:01:13;;;;;;;33.67;12.30;;;;;;;5.13;56.77;101808.64;1886479;76;21588;-54
2023/01/20 06:03:42;;;;;;;28.65;13.68;;;;;;;5.33;56.37;101806.03;1886439;76;21055;-51
2023/01/20 06:06:17;;;;;;;46.83;16.02;;;;;;;5.58;55.96;101808.62;1886503;75;21086;-51
2023/01/20 06:08:44;;;;;;;;;;;;;;;5.95;55.64;101804.20;1889267;76;21023;-50
2023/01/20 06:11:47;;;;;;;28.80;12.53;;;;;;;6.31;55.27;101799.73;1886384;76;20211;-50
2023/01/20 06:14:15;;;;;;;24.82;12.00;;;;;;;6.41;54.89;101804.93;1886278;76;21050;-56
2023/01/20 06:16:44;;;;;;;25.50;11.65;;;;;;;6.33;54.66;101802.35;1886348;76;21023;-48
2023/01/20 06:19:13;;;;;;;40.98;12.65;;;;;;;6.43;54.56;101801.86;1886261;76;21050;-58
2023/01/20 06:21:41;;;;;;;27.77;11.57;;;;;;;6.54;54.45;101802.22;1886360;76;21165;-57
2023/01/20 06:24:10;;;;;;;44.75;13.20;;;;;;;6.70;54.20;101794.31;1886485;76;21618;-55
2023/01/20 06:26:39;;;;;;;39.42;12.82;;;;;;;6.78;54.08;101789.02;1886314;76;21035;-58
2023/01/20 06:29:07;;;;;;;44.75;13.55;;;;;;;6.90;53.88;101786.33;1870457;76;21095;-58
2023/01/20 06:31:36;;;;;;;38.65;12.98;;;;;;;7.12;53.75;101780.48;1867934;76;21048;-47
2023/01/20 06:34:04;;;;;;;49.25;15.03;;;;;;;7.42;53.42;101787.20;1868054;75;21540;-49
2023/01/20 06:36:33;;;;;;;58.50;13.62;;;;;;;7.81;53.04;101773.27;1869090;76;21028;-55
2023/01/20 06:39:02;;;;;;;53.98;16.00;;;;;;;8.20;52.60;101767.12;1869331;76;21024;-54
2023/01/20 06:41:30;;;;;;;52.30;15.48;;;;;;;8.53;52.22;101770.67;1869092;76;21035;-52
2023/01/20 06:43:59;;;;;;;43.00;17.45;;;;;;;8.92;51.65;101773.14;1868252;76;21031;-55
2023/01/20 06:46:28;;;;;;;47.67;15.43;;;;;;;9.23;51.26;101768.25;1866686;76;21011;-58
2023/01/20 06:48:59;;;;;;;60.80;17.23;;;;;;;9.65;50.64;101765.75;1868182;76;21113;-57
2023/01/20 06:51:28;;;;;;;53.20;16.30;;;;;;;9.94;50.26;101759.50;1867836;76;21034;-54
2023/01/20 06:53:57;;;;;;;47.38;15.60;;;;;;;10.35;49.71;101764.41;1868067;76;21047;-55
2023/01/20 06:56:26;;;;;;;45.35;15.98;;;;;;;10.74;49.22;101759.99;1868719;76;21043;-56
2023/01/20 06:58:55;;;;;;;46.40;16.20;;;;;;;11.20;48.55;101754.91;1867539;76;21043;-57
2023/01/20 07:01:26;;;;;;;41.48;16.97;;;;;;;11.70;47.79;101747.03;1867658;76;21153;-55
2023/01/20 07:03:55;;;;;;;49.75;16.27;;;;;;;12.02;47.46;101740.00;1867702;76;21043;-54
2023/01/20 07:06:38;;;;;;;38.58;15.00;;;;;;;12.39;46.84;101734.94;1867539;76;21118;-49
2023/01/20 07:09:09;;;;;;;43.38;14.85;;;;;;;12.80;46.36;101734.08;1867841;76;21113;-48
2023/01/20 07:11:38;;;;;;;39.27;15.32;;;;;;;13.23;45.89;101731.34;1868704;76;21087;-48
2023/01/20 07:14:08;;;;;;;43.38;14.63;;;;;;;13.30;45.40;101727.58;1869149;76;21031;-51
2023/01/20 07:16:37;;;;;;;47.30;16.95;;;;;;;13.56;44.94;101727.15;1867903;76;21411;-49
2023/01/20 07:19:05;;;;;;;37.60;15.25;;;;;;;13.66;44.62;101721.91;1867440;76;21109;-49
2023/01/20 07:21:34;;;;;;;44.42;16.00;;;;;;;13.59;44.27;101712.47;1868337;76;21024;-53
2023/01/20 07:24:03;;;;;;;53.83;18.55;;;;;;;13.81;43.80;101720.02;1869551;76;21120;-50
2023/01/20 07:26:32;;;;;;;46.83;18.57;;;;;;;14.10;43.16;101724.70;1868910;76;21047;-51
2023/01/20 07:29:01;;;;;;;51.73;19.02;;;;;;;14.40;42.40;101719.13;1882707;75;21054;-51
2023/01/20 07:31:33;;;;;;;51.70;19.52;;;;;;;14.80;41.80;101715.77;1898598;75;21148;-51
2023/01/20 07:34:02;;;;;;;46.60;18.80;;;;;;;15.21;41.34;101713.15;1898451;75;21583;-53
2023/01/20 07:36:30;;;;;;;65.10;21.55;;;;;;;15.14;40.95;101713.48;1898638;75;21116;-58
2023/01/20 07:38:59;;;;;;;62.45;21.57;;;;;;;14.99;40.73;101712.34;1898464;75;21038;-57
2023/01/20 07:41:28;;;;;;;82.35;23.98;;;;;;;15.05;40.21;101713.44;1898414;75;21015;-57
2023/01/20 07:43:56;;;;;;;71.97;23.57;;;;;;;15.35;40.04;101704.61;1898403;75;21035;-53
2023/01/20 07:46:25;;;;;;;66.85;21.97;;;;;;;15.26;39.67;101708.98;1898589;75;21038;-51
2023/01/20 07:48:55;;;;;;;63.35;23.47;;;;;;;15.39;39.33;101704.86;1898384;75;21031;-51
2023/01/20 07:51:23;;;;;;;68.47;23.45;;;;;;;15.41;39.21;101699.02;1898455;75;21457;-51
2023/01/20 07:53:52;;;;;;;76.28;23.22;;;;;;;15.64;38.88;101695.36;1898470;75;21086;-52
2023/01/20 07:56:24;;;;;;;78.52;24.27;;;;;;;15.86;38.63;101697.08;1898426;75;21109;-52
2023/01/20 07:58:54;;;;;;;54.98;20.72;;;;;;;16.03;38.29;101690.97;1898425;75;21065;-55
2023/01/20 08:01:28;;;;;;;53.98;19.40;;;;;;;16.11;38.07;101691.46;1898413;75;21035;-57
2023/01/20 08:04:03;;;;;;;54.40;20.00;;;;;;;16.20;37.89;101687.52;1898432;75;21058;-55
2023/01/20 08:06:29;;;;;;;41.85;18.82;;;;;;;16.26;37.76;101687.69;1897220;75;21120;-57
2023/01/20 08:09:00;;;;;;;47.75;19.52;;;;;;;16.27;37.47;101677.44;1898506;75;21486;-57
2023/01/20 08:11:30;;;;;;;46.85;18.55;;;;;;;16.34;37.20;101677.09;1898401;75;21108;-49
2023/01/20 08:13:59;;;;;;;42.03;18.40;;;;;;;16.05;37.36;101669.18;1898431;75;21048;-52
2023/01/20 08:16:28;;;;;;;42.80;19.20;;;;;;;15.61;37.62;101668.08;1898424;75;21038;-55
2023/01/20 08:18:57;;;;;;;43.02;18.27;;;;;;;15.58;37.44;101669.54;1898364;75;21022;-55
2023/01/20 08:21:29;;;;;;;39.05;17.23;;;;;;;15.75;37.28;101660.39;1898574;75;21038;-54
2023/01/20 08:24:04;;;;;;;33.40;15.63;;;;;;;16.34;37.22;101657.61;1898388;75;21050;-52
2023/01/20 08:26:33;;;;;;;38.78;16.30;;;;;;;16.70;36.65;101656.27;1898289;75;21090;-52
2023/01/20 08:29:05;;;;;;;48.52;19.57;;;;;;;16.72;36.46;101653.53;1891321;75;21588;-55
2023/01/20 08:31:34;;;;;;;39.23;17.20;;;;;;;16.65;36.44;101649.45;1868782;76;21228;-57
2023/01/20 08:34:03;;;;;;;45.28;18.52;;;;;;;16.20;36.63;101643.20;1868466;76;21643;-49
2023/01/20 08:36:35;;;;;;;35.73;16.50;;;;;;;16.14;36.63;101638.66;1868342;76;21046;-48
2023/01/20 08:39:06;;;;;;;34.23;16.85;;;;;;;16.34;36.22;101635.02;1869222;76;21094;-58
2023/01/20 08:41:37;;;;;;;33.65;16.05;;;;;;;16.72;35.78;101634.92;1869930;76;21544;-58
2023/01/20 08:44:07;;;;;;;32.25;13.43;;;;;;;17.06;35.28;101625.22;1869873;76;21027;-52
2023/01/20 08:46:37;;;;;;;26.35;12.10;;;;;;;17.38;34.79;101620.02;1868901;76;21533;-50
2023/01/20 08:49:15;;;;;;;25.75;11.55;;;;;;;17.69;34.43;101612.56;1868787;76;21447;-54
2023/01/20 08:51:44;;;;;;;23.42;10.38;;;;;;;18.02;34.01;101615.17;1869081;76;21204;-54
2023/01/20 08:54:13;;;;;;;23.32;10.55;;;;;;;18.45;33.75;101611.84;1869641;76;21078;-58
2023/01/20 08:56:42;;;;;;;27.65;11.38;;;;;;;18.62;33.38;101608.19;1869375;76;21478;-58
2023/01/20 08:59:11;;;;;;;24.25;9.85;;;;;;;18.86;32.90;101609.41;1867987;76;21051;-57
2023/01/20 09:01:41;;;;;;;25.20;11.22;;;;;;;19.29;32.39;101600.13;1866823;76;21113;-56
2023/01/20 09:04:10;;;;;;;23.18;9.50;;;;;;;19.58;31.84;101596.09;1869143;76;21549;-55
2023/01/20 09:06:42;;;;;;;26.82;10.65;;;;;;;19.40;31.92;101595.91;1867863;76;21161;-56
2023/01/20 09:09:12;;;;;;;25.37;10.08;;;;;;;19.25;32.00;101597.24;1867981;76;21051;-56
2023/01/20 09:11:43;;;;;;;24.72;10.38;;;;;;;19.50;31.81;101590.38;1869487;76;21498;-56
2023/01/20 09:14:11;;;;;;;24.37;10.88;;;;;;;19.72;31.70;101590.36;1868193;76;21117;-56
2023/01/20 09:16:40;;;;;;;28.38;11.20;;;;;;;19.83;31.31;101580.72;1868161;76;21039;-57
2023/01/20 09:19:08;;;;;;;21.62;9.93;;;;;;;19.89;31.38;101578.12;1866804;76;21027;-57
2023/01/20 09:21:37;;;;;;;26.33;9.73;;;;;;;19.74;31.37;101571.11;1868351;76;21051;-57
2023/01/20 09:24:06;;;;;;;29.18;11.25;;;;;;;19.70;31.44;101572.21;1867240;76;21034;-57
2023/01/20 09:26:38;;;;;;;25.68;9.80;;;;;;;19.73;31.12;101569.38;1868427;76;21055;-57
2023/01/20 09:29:09;;;;;;;22.52;8.90;;;;;;;20.01;30.88;101561.30;1868054;76;21015;-56
2023/01/20 09:31:42;;;;;;;19.77;9.53;;;;;;;20.22;30.53;101567.02;1885784;76;21074;-56
2023/01/20 09:34:11;;;;;;;17.45;8.78;;;;;;;20.24;30.30;101570.45;1886522;75;21426;-54
2023/01/20 09:36:39;;;;;;;21.35;7.83;;;;;;;20.33;29.94;101568.98;1886398;76;21129;-55
2023/01/20 09:44:58;;;;;;;22.67;9.53;;;;;;;20.72;29.32;101567.27;1886351;76;21082;-53
2023/01/20 09:47:31;;;;;;;18.98;8.15;;;;;;;20.86;29.28;101554.73;1885647;76;21173;-54
2023/01/20 09:53:24;;;;;;;19.70;8.03;;;;;;;20.31;29.58;101548.66;1886341;76;21090;-59
2023/01/20 09:55:58;;;;;;;21.57;9.48;;;;;;;20.00;29.95;101538.18;1886486;76;21556;-59
2023/01/20 09:58:51;;;;;;;19.17;9.00;;;;;;;19.96;30.16;101539.34;1886390;76;21536;-55
2023/01/20 10:01:40;;;;;;;19.15;8.05;;;;;;;19.67;30.10;101530.05;1885636;76;21210;-56
2023/01/20 10:04:20;;;;;;;24.70;9.43;;;;;;;19.75;29.88;101530.06;1886471;76;21508;-52
2023/01/20 10:06:58;;;;;;;19.25;9.38;;;;;;;20.00;29.85;101523.97;1886403;75;21430;-54
2023/01/20 10:09:30;;;;;;;22.98;10.15;;;;;;;20.20;29.45;101515.47;1885994;76;21117;-51
2023/01/20 10:12:22;;;;;;;25.85;9.95;;;;;;;20.55;29.23;101522.06;1886305;75;21090;-59
2023/01/20 10:14:56;;;;;;;19.98;9.53;;;;;;;21.11;28.91;101523.09;1886329;76;21062;-58
2023/01/20 10:17:31;;;;;;;23.55;10.48;;;;;;;21.45;28.60;101521.56;1883846;75;21148;-59
2023/01/20 10:20:12;;;;;;;19.75;9.85;;;;;;;21.54;28.44;101523.58;1886349;75;21046;-59
2023/01/20 10:22:48;;;;;;;30.95;11.03;;;;;;;21.65;28.36;101519.23;1886322;76;21466;-56
2023/01/20 10:25:40;;;;;;;24.10;13.00;;;;;;;21.84;28.22;101520.94;1886190;76;21125;-60
2023/01/20 10:28:05;;;;;;;23.92;10.60;;;;;;;21.87;28.00;101520.69;1881879;76;21116;-58
2023/01/20 10:30:37;;;;;;;24.65;10.90;;;;;;;21.97;27.92;101519.53;1886300;75;21603;-54
2023/01/20 10:33:13;;;;;;;21.52;9.38;;;;;;;22.07;27.73;101513.84;1886339;76;21047;-55
2023/01/20 10:35:45;;;;;;;25.75;10.78;;;;;;;22.22;27.53;101513.16;1886347;76;21051;-57
2023/01/20 10:38:37;;;;;;;21.80;9.35;;;;;;;21.88;27.81;101506.33;1886395;75;21125;-55
2023/01/20 10:41:24;;;;;;;20.75;9.70;;;;;;;22.05;27.82;101510.91;1885733;76;21039;-55
2023/01/20 10:43:53;;;;;;;24.55;9.40;;;;;;;22.12;27.65;101513.50;1886102;76;21090;-59
2023/01/20 10:46:37;;;;;;;20.82;9.03;;;;;;;22.21;27.56;101500.73;1886266;76;21105;-56
2023/01/20 10:49:26;;;;;;;19.70;10.00;;;;;;;22.44;27.36;101496.30;1886475;76;21023;-55
2023/01/20 10:52:00;;;;;;;22.07;9.50;;;;;;;22.61;27.17;101497.70;1886356;75;21093;-47
2023/01/20 10:54:40;;;;;;;24.77;9.33;;;;;;;22.60;27.20;101494.63;1886113;76;21118;-49
2023/01/20 10:57:12;;;;;;;24.27;10.10;;;;;;;22.45;27.38;101493.16;1885725;76;21113;-56
2023/01/20 10:59:46;;;;;;;25.27;9.08;;;;;;;22.53;27.21;101488.03;1886370;76;21043;-56
2023/01/20 11:02:19;;;;;;;21.05;10.28;;;;;;;22.50;27.26;101488.26;1868840;74;21120;-57
2023/01/20 11:04:51;;;;;;;27.65;8.95;;;;;;;22.57;27.22;101485.47;1856170;77;21150;-58
2023/01/20 11:07:20;;;;;;;24.45;9.45;;;;;;;22.54;27.17;101485.73;1856332;77;21028;-57
2023/01/20 11:09:49;;;;;;;26.30;13.08;;;;;;;22.29;27.38;101490.29;1856307;77;21054;-57
2023/01/20 11:12:20;;;;;;;25.72;11.33;;;;;;;21.86;27.63;101490.00;1856500;77;21459;-62
2023/01/20 11:14:50;;;;;;;21.25;9.73;;;;;;;21.44;28.22;101483.64;1855281;77;21569;-53
2023/01/20 11:17:21;;;;;;;27.30;10.58;;;;;;;20.85;28.91;101484.80;1856449;77;21750;-58
2023/01/20 11:19:53;;;;;;;28.25;10.60;;;;;;;20.46;29.14;101478.06;1855294;77;21526;-57
2023/01/20 11:22:36;;;;;;;24.27;9.35;;;;;;;20.56;29.03;101474.27;1856376;77;21125;-58
2023/01/20 11:25:08;;;;;;;25.25;10.48;;;;;;;20.76;28.66;101475.09;1856406;77;21023;-60
2023/01/20 11:27:50;;;;;;;21.33;9.35;;;;;;;20.90;28.44;101473.28;1851896;77;21522;-61
2023/01/20 11:30:28;;;;;;;22.85;9.78;;;;;;;20.96;28.37;101463.47;1856295;77;21121;-62
2023/01/20 11:33:19;;;;;;;25.43;8.38;;;;;;;20.95;28.47;101468.43;1841125;77;21164;-63
2023/01/20 11:36:09;;;;;;;27.20;10.72;;;;;;;21.01;28.50;101465.34;1840948;77;21511;-63
2023/01/20 11:38:49;;;;;;;27.62;8.35;;;;;;;20.87;28.66;101464.97;1836480;77;21510;-63
2023/01/20 11:41:24;;;;;;;30.32;10.95;;;;;;;20.91;28.67;101461.10;1840828;78;21064;-57
2023/01/20 11:43:58;;;;;;;29.37;12.18;;;;;;;20.40;29.12;101463.30;1840125;77;21573;-59
2023/01/20 11:46:33;;;;;;;35.70;11.78;;;;;;;19.92;29.68;101468.36;1829437;76;21074;-53
2023/01/20 11:49:21;;;;;;;32.93;10.88;;;;;;;19.61;30.10;101467.67;1808748;79;21536;-59
2023/01/20 11:51:55;;;;;;;28.23;12.03;;;;;;;19.26;30.50;101472.64;1838341;78;21137;-58